sensor_id;sensor_type;location;lat;lon;timestamp;P1;durP1;ratioP1;P2;durP2;ratioP2
66402;SDS011;53212;52.112;5.144;2022-10-22T00:01:16;3.50;;;2.50;;
66402;SDS011;53212;52.112;5.144;2022-10-22T00:03:44;10.10;;;3.00;;
66402;SDS011;53212;52.112;5.144;2022-10-22T00:06:12;6.10;;;2.20;;
66402;SDS011;53212;52.112;5.144;2022-10-22T00:08:37;10.30;;;2.60;;
66402;SDS011;53212;52.112;5.144;2022-10-22T00:11:08;11.80;;;3.10;;
66402;SDS011;53212;52.112;5.144;2022-10-22T00:13:40;5.90;;;2.80;;
66402;SDS011;53212;52.112;5.144;2022-10-22T00:16:07;5.10;;;2.30;;
66402;SDS011;53212;52.112;5.144;2022-10-22T00:18:33;8.00;;;2.70;;
66402;SDS011;53212;52.112;5.144;2022-10-22T00:20:58;4.70;;;2.50;;
66402;SDS011;53212;52.112;5.144;2022-10-22T00:23:24;5.00;;;2.90;;
66402;SDS011;53212;52.112;5.144;2022-10-22T00:25:49;4.90;;;2.60;;
66402;SDS011;53212;52.112;5.144;2022-10-22T00:28:17;4.70;;;2.40;;
66402;SDS011;53212;52.112;5.144;2022-10-22T00:30:43;6.10;;;2.60;;
66402;SDS011;53212;52.112;5.144;2022-10-22T00:33:08;4.50;;;2.50;;
66402;SDS011;53212;52.112;5.144;2022-10-22T00:35:34;10.10;;;2.90;;
66402;SDS011;53212;52.112;5.144;2022-10-22T00:37:59;5.40;;;2.30;;
66402;SDS011;53212;52.112;5.144;2022-10-22T00:40:25;5.40;;;2.40;;
66402;SDS011;53212;52.112;5.144;2022-10-22T00:42:50;5.30;;;2.90;;
66402;SDS011;53212;52.112;5.144;2022-10-22T00:45:20;8.20;;;2.90;;
66402;SDS011;53212;52.112;5.144;2022-10-22T00:50:40;8.90;;;2.80;;
66402;SDS011;53212;52.112;5.144;2022-10-22T00:53:12;8.10;;;3.20;;
66402;SDS011;53212;52.112;5.144;2022-10-22T00:55:41;3.50;;;3.00;;
66402;SDS011;53212;52.112;5.144;2022-10-22T00:58:09;3.60;;;2.90;;
66402;SDS011;53212;52.112;5.144;2022-10-22T01:00:37;6.20;;;1.90;;
66402;SDS011;53212;52.112;5.144;2022-10-22T01:03:03;6.50;;;2.40;;
66402;SDS011;53212;52.112;5.144;2022-10-22T01:05:30;5.30;;;2.70;;
66402;SDS011;53212;52.112;5.144;2022-10-22T01:08:04;9.20;;;3.60;;
66402;SDS011;53212;52.112;5.144;2022-10-22T01:22:39;8.00;;;3.30;;
66402;SDS011;53212;52.112;5.144;2022-10-22T01:28:17;11.10;;;3.70;;
66402;SDS011;53212;52.112;5.144;2022-10-22T01:30:46;5.40;;;2.80;;
66402;SDS011;53212;52.112;5.144;2022-10-22T01:33:16;8.00;;;2.90;;
66402;SDS011;53212;52.112;5.144;2022-10-22T01:35:44;10.10;;;3.00;;
66402;SDS011;53212;52.112;5.144;2022-10-22T01:38:13;5.10;;;3.50;;
66402;SDS011;53212;52.112;5.144;2022-10-22T01:40:41;10.60;;;2.90;;
66402;SDS011;53212;52.112;5.144;2022-10-22T01:43:09;6.60;;;2.70;;
66402;SDS011;53212;52.112;5.144;2022-10-22T01:45:43;4.80;;;2.90;;
66402;SDS011;53212;52.112;5.144;2022-10-22T01:48:33;7.40;;;2.40;;
66402;SDS011;53212;52.112;5.144;2022-10-22T01:51:11;6.40;;;3.20;;
66402;SDS011;53212;52.112;5.144;2022-10-22T01:56:53;7.70;;;2.50;;
66402;SDS011;53212;52.112;5.144;2022-10-22T01:59:35;6.70;;;2.70;;
66402;SDS011;53212;52.112;5.144;2022-10-22T02:02:53;7.80;;;2.80;;
66402;SDS011;53212;52.112;5.144;2022-10-22T02:05:29;5.60;;;2.70;;
66402;SDS011;53212;52.112;5.144;2022-10-22T02:08:13;7.10;;;2.60;;
66402;SDS011;53212;52.112;5.144;2022-10-22T02:10:44;3.90;;;2.20;;
66402;SDS011;53212;52.112;5.144;2022-10-22T02:13:21;5.70;;;3.00;;
66402;SDS011;53212;52.112;5.144;2022-10-22T02:15:51;5.90;;;2.40;;
66402;SDS011;53212;52.112;5.144;2022-10-22T02:18:18;7.40;;;2.30;;
66402;SDS011;53212;52.112;5.144;2022-10-22T02:20:48;4.70;;;2.40;;
66402;SDS011;53212;52.112;5.144;2022-10-22T02:23:14;7.00;;;3.10;;
66402;SDS011;53212;52.112;5.144;2022-10-22T02:25:41;6.80;;;2.60;;
66402;SDS011;53212;52.112;5.144;2022-10-22T02:28:18;7.50;;;2.30;;
66402;SDS011;53212;52.112;5.144;2022-10-22T02:30:56;6.20;;;2.30;;
66402;SDS011;53212;52.112;5.144;2022-10-22T02:33:32;6.50;;;2.50;;
66402;SDS011;53212;52.112;5.144;2022-10-22T02:36:02;7.10;;;2.60;;
66402;SDS011;53212;52.112;5.144;2022-10-22T02:38:29;6.40;;;2.60;;
66402;SDS011;53212;52.112;5.144;2022-10-22T02:40:56;7.20;;;2.50;;
66402;SDS011;53212;52.112;5.144;2022-10-22T02:43:23;6.30;;;2.30;;
66402;SDS011;53212;52.112;5.144;2022-10-22T02:45:49;6.10;;;2.30;;
66402;SDS011;53212;52.112;5.144;2022-10-22T02:48:15;5.80;;;2.30;;
66402;SDS011;53212;52.112;5.144;2022-10-22T02:50:41;9.60;;;2.50;;
66402;SDS011;53212;52.112;5.144;2022-10-22T02:53:07;7.90;;;2.50;;
66402;SDS011;53212;52.112;5.144;2022-10-22T02:55:32;9.00;;;3.30;;
66402;SDS011;53212;52.112;5.144;2022-10-22T02:57:58;6.80;;;2.70;;
66402;SDS011;53212;52.112;5.144;2022-10-22T03:00:23;3.70;;;2.30;;
66402;SDS011;53212;52.112;5.144;2022-10-22T03:02:48;5.70;;;2.70;;
66402;SDS011;53212;52.112;5.144;2022-10-22T03:05:14;5.80;;;2.30;;
66402;SDS011;53212;52.112;5.144;2022-10-22T03:07:41;8.70;;;2.90;;
66402;SDS011;53212;52.112;5.144;2022-10-22T03:10:07;6.50;;;2.80;;
66402;SDS011;53212;52.112;5.144;2022-10-22T03:12:32;6.20;;;2.70;;
66402;SDS011;53212;52.112;5.144;2022-10-22T03:14:59;12.80;;;2.50;;
66402;SDS011;53212;52.112;5.144;2022-10-22T03:17:25;7.80;;;3.20;;
66402;SDS011;53212;52.112;5.144;2022-10-22T03:19:51;4.50;;;2.70;;
66402;SDS011;53212;52.112;5.144;2022-10-22T03:22:25;7.10;;;2.40;;
66402;SDS011;53212;52.112;5.144;2022-10-22T03:24:54;12.80;;;3.30;;
66402;SDS011;53212;52.112;5.144;2022-10-22T03:29:51;5.90;;;2.70;;
66402;SDS011;53212;52.112;5.144;2022-10-22T03:32:17;9.60;;;3.20;;
66402;SDS011;53212;52.112;5.144;2022-10-22T03:34:43;12.50;;;4.00;;
66402;SDS011;53212;52.112;5.144;2022-10-22T03:37:09;8.60;;;2.70;;
66402;SDS011;53212;52.112;5.144;2022-10-22T03:39:35;4.50;;;2.70;;
66402;SDS011;53212;52.112;5.144;2022-10-22T03:42:02;5.40;;;2.80;;
66402;SDS011;53212;52.112;5.144;2022-10-22T03:44:32;13.80;;;2.90;;
66402;SDS011;53212;52.112;5.144;2022-10-22T03:47:00;8.00;;;2.80;;
66402;SDS011;53212;52.112;5.144;2022-10-22T03:49:26;8.00;;;3.90;;
66402;SDS011;53212;52.112;5.144;2022-10-22T03:51:55;4.90;;;3.00;;
66402;SDS011;53212;52.112;5.144;2022-10-22T03:54:21;8.00;;;3.00;;
66402;SDS011;53212;52.112;5.144;2022-10-22T03:56:47;7.10;;;3.20;;
66402;SDS011;53212;52.112;5.144;2022-10-22T03:59:12;8.40;;;3.00;;
66402;SDS011;53212;52.112;5.144;2022-10-22T04:01:39;9.70;;;3.50;;
66402;SDS011;53212;52.112;5.144;2022-10-22T04:04:05;7.50;;;3.20;;
66402;SDS011;53212;52.112;5.144;2022-10-22T04:06:30;9.40;;;3.20;;
66402;SDS011;53212;52.112;5.144;2022-10-22T04:08:56;6.90;;;2.70;;
66402;SDS011;53212;52.112;5.144;2022-10-22T04:11:24;6.50;;;2.90;;
66402;SDS011;53212;52.112;5.144;2022-10-22T04:13:51;10.80;;;3.90;;
66402;SDS011;53212;52.112;5.144;2022-10-22T04:16:18;8.80;;;2.90;;
66402;SDS011;53212;52.112;5.144;2022-10-22T04:18:47;9.80;;;3.40;;
66402;SDS011;53212;52.112;5.144;2022-10-22T04:21:17;5.90;;;3.10;;
66402;SDS011;53212;52.112;5.144;2022-10-22T04:23:48;9.00;;;3.20;;
66402;SDS011;53212;52.112;5.144;2022-10-22T04:26:16;8.70;;;3.40;;
66402;SDS011;53212;52.112;5.144;2022-10-22T04:28:44;9.20;;;3.70;;
66402;SDS011;53212;52.112;5.144;2022-10-22T04:31:38;11.90;;;3.30;;
66402;SDS011;53212;52.112;5.144;2022-10-22T04:34:03;7.90;;;2.80;;
66402;SDS011;53212;52.112;5.144;2022-10-22T04:36:29;7.10;;;2.70;;
66402;SDS011;53212;52.112;5.144;2022-10-22T04:38:57;6.60;;;3.00;;
66402;SDS011;53212;52.112;5.144;2022-10-22T04:41:29;7.30;;;3.00;;
66402;SDS011;53212;52.112;5.144;2022-10-22T04:43:57;7.00;;;2.90;;
66402;SDS011;53212;52.112;5.144;2022-10-22T04:46:24;8.80;;;3.20;;
66402;SDS011;53212;52.112;5.144;2022-10-22T04:48:52;11.30;;;3.40;;
66402;SDS011;53212;52.112;5.144;2022-10-22T04:51:21;7.80;;;2.90;;
66402;SDS011;53212;52.112;5.144;2022-10-22T04:53:48;7.50;;;2.70;;
66402;SDS011;53212;52.112;5.144;2022-10-22T04:56:22;7.40;;;2.50;;
66402;SDS011;53212;52.112;5.144;2022-10-22T04:58:55;12.90;;;3.00;;
66402;SDS011;53212;52.112;5.144;2022-10-22T05:01:27;9.00;;;2.60;;
66402;SDS011;53212;52.112;5.144;2022-10-22T05:03:58;6.70;;;2.50;;
66402;SDS011;53212;52.112;5.144;2022-10-22T05:06:27;9.10;;;3.30;;
66402;SDS011;53212;52.112;5.144;2022-10-22T05:08:58;5.50;;;2.50;;
66402;SDS011;53212;52.112;5.144;2022-10-22T05:11:27;10.80;;;2.60;;
66402;SDS011;53212;52.112;5.144;2022-10-22T05:13:56;7.00;;;2.90;;
66402;SDS011;53212;52.112;5.144;2022-10-22T05:16:23;6.50;;;2.70;;
66402;SDS011;53212;52.112;5.144;2022-10-22T05:18:49;6.90;;;2.80;;
66402;SDS011;53212;52.112;5.144;2022-10-22T05:21:16;6.80;;;2.40;;
66402;SDS011;53212;52.112;5.144;2022-10-22T05:23:44;9.60;;;2.70;;
66402;SDS011;53212;52.112;5.144;2022-10-22T05:26:13;6.90;;;3.00;;
66402;SDS011;53212;52.112;5.144;2022-10-22T05:28:41;8.70;;;2.80;;
66402;SDS011;53212;52.112;5.144;2022-10-22T05:31:08;9.70;;;2.70;;
66402;SDS011;53212;52.112;5.144;2022-10-22T05:33:35;8.90;;;2.80;;
66402;SDS011;53212;52.112;5.144;2022-10-22T05:36:02;11.40;;;3.10;;
66402;SDS011;53212;52.112;5.144;2022-10-22T05:38:30;5.80;;;2.40;;
66402;SDS011;53212;52.112;5.144;2022-10-22T05:41:08;5.00;;;2.30;;
66402;SDS011;53212;52.112;5.144;2022-10-22T05:43:36;10.50;;;2.70;;
66402;SDS011;53212;52.112;5.144;2022-10-22T05:46:03;8.90;;;2.50;;
66402;SDS011;53212;52.112;5.144;2022-10-22T05:48:31;9.80;;;2.80;;
66402;SDS011;53212;52.112;5.144;2022-10-22T05:51:00;6.10;;;2.30;;
66402;SDS011;53212;52.112;5.144;2022-10-22T05:53:31;6.30;;;2.20;;
66402;SDS011;53212;52.112;5.144;2022-10-22T05:56:02;6.00;;;2.10;;
66402;SDS011;53212;52.112;5.144;2022-10-22T05:58:30;9.70;;;2.80;;
66402;SDS011;53212;52.112;5.144;2022-10-22T06:01:06;11.00;;;3.00;;
66402;SDS011;53212;52.112;5.144;2022-10-22T06:03:36;8.60;;;2.20;;
66402;SDS011;53212;52.112;5.144;2022-10-22T06:06:06;10.80;;;2.70;;
66402;SDS011;53212;52.112;5.144;2022-10-22T06:11:57;6.40;;;2.70;;
66402;SDS011;53212;52.112;5.144;2022-10-22T06:17:55;6.70;;;2.70;;
66402;SDS011;53212;52.112;5.144;2022-10-22T06:20:23;8.90;;;2.50;;
66402;SDS011;53212;52.112;5.144;2022-10-22T06:22:49;5.30;;;2.40;;
66402;SDS011;53212;52.112;5.144;2022-10-22T06:25:17;9.10;;;2.90;;
66402;SDS011;53212;52.112;5.144;2022-10-22T06:27:55;10.20;;;3.00;;
66402;SDS011;53212;52.112;5.144;2022-10-22T06:30:26;4.70;;;2.40;;
66402;SDS011;53212;52.112;5.144;2022-10-22T06:32:52;14.00;;;2.50;;
66402;SDS011;53212;52.112;5.144;2022-10-22T06:35:17;8.30;;;2.40;;
66402;SDS011;53212;52.112;5.144;2022-10-22T06:37:45;10.30;;;2.70;;
66402;SDS011;53212;52.112;5.144;2022-10-22T06:40:12;12.00;;;2.40;;
66402;SDS011;53212;52.112;5.144;2022-10-22T06:42:38;8.50;;;2.60;;
66402;SDS011;53212;52.112;5.144;2022-10-22T06:45:04;9.40;;;2.80;;
66402;SDS011;53212;52.112;5.144;2022-10-22T06:47:30;9.60;;;3.10;;
66402;SDS011;53212;52.112;5.144;2022-10-22T06:49:57;11.80;;;3.10;;
66402;SDS011;53212;52.112;5.144;2022-10-22T06:52:23;9.50;;;2.40;;
66402;SDS011;53212;52.112;5.144;2022-10-22T06:54:49;8.40;;;2.30;;
66402;SDS011;53212;52.112;5.144;2022-10-22T06:57:14;10.70;;;3.10;;
66402;SDS011;53212;52.112;5.144;2022-10-22T06:59:40;9.70;;;2.70;;
66402;SDS011;53212;52.112;5.144;2022-10-22T07:02:08;12.60;;;2.60;;
66402;SDS011;53212;52.112;5.144;2022-10-22T07:04:34;11.20;;;2.80;;
66402;SDS011;53212;52.112;5.144;2022-10-22T07:07:00;11.20;;;2.90;;
66402;SDS011;53212;52.112;5.144;2022-10-22T07:09:26;7.40;;;2.20;;
66402;SDS011;53212;52.112;5.144;2022-10-22T07:11:53;9.80;;;2.20;;
66402;SDS011;53212;52.112;5.144;2022-10-22T07:14:18;5.10;;;2.40;;
66402;SDS011;53212;52.112;5.144;2022-10-22T07:16:44;5.10;;;2.20;;
66402;SDS011;53212;52.112;5.144;2022-10-22T07:19:11;12.20;;;2.20;;
66402;SDS011;53212;52.112;5.144;2022-10-22T07:21:37;6.80;;;2.10;;
66402;SDS011;53212;52.112;5.144;2022-10-22T07:24:03;6.20;;;2.00;;
66402;SDS011;53212;52.112;5.144;2022-10-22T07:26:33;8.40;;;2.40;;
66402;SDS011;53212;52.112;5.144;2022-10-22T07:28:59;7.70;;;2.40;;
66402;SDS011;53212;52.112;5.144;2022-10-22T07:31:25;4.10;;;2.10;;
66402;SDS011;53212;52.112;5.144;2022-10-22T07:33:51;9.60;;;2.40;;
66402;SDS011;53212;52.112;5.144;2022-10-22T07:36:17;8.50;;;2.10;;
66402;SDS011;53212;52.112;5.144;2022-10-22T07:38:54;6.40;;;1.90;;
66402;SDS011;53212;52.112;5.144;2022-10-22T07:41:25;7.30;;;1.80;;
66402;SDS011;53212;52.112;5.144;2022-10-22T07:43:52;8.20;;;2.00;;
66402;SDS011;53212;52.112;5.144;2022-10-22T07:46:33;7.70;;;2.10;;
66402;SDS011;53212;52.112;5.144;2022-10-22T07:49:01;5.90;;;1.90;;
66402;SDS011;53212;52.112;5.144;2022-10-22T07:51:30;7.30;;;2.00;;
66402;SDS011;53212;52.112;5.144;2022-10-22T07:53:55;12.10;;;2.10;;
66402;SDS011;53212;52.112;5.144;2022-10-22T07:56:21;5.50;;;1.90;;
66402;SDS011;53212;52.112;5.144;2022-10-22T07:58:47;5.00;;;1.90;;
66402;SDS011;53212;52.112;5.144;2022-10-22T08:01:16;4.60;;;1.80;;
66402;SDS011;53212;52.112;5.144;2022-10-22T08:03:41;9.60;;;2.00;;
66402;SDS011;53212;52.112;5.144;2022-10-22T08:06:08;8.50;;;2.40;;
66402;SDS011;53212;52.112;5.144;2022-10-22T08:08:37;9.20;;;2.00;;
66402;SDS011;53212;52.112;5.144;2022-10-22T08:11:03;9.00;;;1.70;;
66402;SDS011;53212;52.112;5.144;2022-10-22T08:13:29;10.90;;;1.90;;
66402;SDS011;53212;52.112;5.144;2022-10-22T08:15:57;8.10;;;1.80;;
66402;SDS011;53212;52.112;5.144;2022-10-22T08:18:24;8.40;;;1.90;;
66402;SDS011;53212;52.112;5.144;2022-10-22T08:20:51;6.10;;;1.90;;
66402;SDS011;53212;52.112;5.144;2022-10-22T08:23:17;8.20;;;1.80;;
66402;SDS011;53212;52.112;5.144;2022-10-22T08:25:43;13.60;;;2.30;;
66402;SDS011;53212;52.112;5.144;2022-10-22T08:28:08;5.50;;;2.50;;
66402;SDS011;53212;52.112;5.144;2022-10-22T08:30:34;9.20;;;2.00;;
66402;SDS011;53212;52.112;5.144;2022-10-22T08:33:03;13.70;;;2.70;;
66402;SDS011;53212;52.112;5.144;2022-10-22T08:35:29;9.50;;;1.80;;
66402;SDS011;53212;52.112;5.144;2022-10-22T08:37:55;5.30;;;1.70;;
66402;SDS011;53212;52.112;5.144;2022-10-22T08:40:36;15.50;;;2.00;;
66402;SDS011;53212;52.112;5.144;2022-10-22T08:43:27;7.10;;;1.60;;
66402;SDS011;53212;52.112;5.144;2022-10-22T08:49:18;4.70;;;1.90;;
66402;SDS011;53212;52.112;5.144;2022-10-22T08:51:47;5.00;;;1.70;;
66402;SDS011;53212;52.112;5.144;2022-10-22T08:57:11;8.00;;;1.80;;
66402;SDS011;53212;52.112;5.144;2022-10-22T09:08:19;5.10;;;1.70;;
66402;SDS011;53212;52.112;5.144;2022-10-22T09:10:51;9.90;;;1.90;;
66402;SDS011;53212;52.112;5.144;2022-10-22T09:13:22;9.90;;;1.80;;
66402;SDS011;53212;52.112;5.144;2022-10-22T09:16:10;6.70;;;1.40;;
66402;SDS011;53212;52.112;5.144;2022-10-22T09:24:50;6.70;;;2.20;;
66402;SDS011;53212;52.112;5.144;2022-10-22T09:27:28;7.50;;;1.70;;
66402;SDS011;53212;52.112;5.144;2022-10-22T09:29:55;7.70;;;2.50;;
66402;SDS011;53212;52.112;5.144;2022-10-22T09:32:21;9.60;;;2.40;;
66402;SDS011;53212;52.112;5.144;2022-10-22T09:34:48;6.00;;;1.80;;
66402;SDS011;53212;52.112;5.144;2022-10-22T09:37:16;6.30;;;1.60;;
66402;SDS011;53212;52.112;5.144;2022-10-22T09:39:45;11.20;;;2.00;;
66402;SDS011;53212;52.112;5.144;2022-10-22T09:42:14;7.90;;;1.50;;
66402;SDS011;53212;52.112;5.144;2022-10-22T09:44:43;9.40;;;2.30;;
66402;SDS011;53212;52.112;5.144;2022-10-22T09:47:33;6.80;;;1.30;;
66402;SDS011;53212;52.112;5.144;2022-10-22T09:50:24;10.40;;;1.90;;
66402;SDS011;53212;52.112;5.144;2022-10-22T09:53:28;5.10;;;1.60;;
66402;SDS011;53212;52.112;5.144;2022-10-22T09:55:57;5.20;;;1.40;;
66402;SDS011;53212;52.112;5.144;2022-10-22T09:58:45;3.50;;;1.60;;
66402;SDS011;53212;52.112;5.144;2022-10-22T10:01:18;9.50;;;1.80;;
66402;SDS011;53212;52.112;5.144;2022-10-22T10:03:48;6.50;;;1.50;;
66402;SDS011;53212;52.112;5.144;2022-10-22T10:06:17;8.70;;;1.70;;
66402;SDS011;53212;52.112;5.144;2022-10-22T10:08:44;6.00;;;1.60;;
66402;SDS011;53212;52.112;5.144;2022-10-22T10:14:07;6.10;;;1.70;;
66402;SDS011;53212;52.112;5.144;2022-10-22T10:19:59;5.50;;;1.90;;
66402;SDS011;53212;52.112;5.144;2022-10-22T10:28:10;7.30;;;1.80;;
66402;SDS011;53212;52.112;5.144;2022-10-22T10:30:48;9.00;;;1.90;;
66402;SDS011;53212;52.112;5.144;2022-10-22T10:33:37;7.20;;;2.00;;
66402;SDS011;53212;52.112;5.144;2022-10-22T10:36:53;6.40;;;1.30;;
66402;SDS011;53212;52.112;5.144;2022-10-22T10:40:01;5.20;;;1.40;;
66402;SDS011;53212;52.112;5.144;2022-10-22T10:46:00;6.10;;;1.40;;
66402;SDS011;53212;52.112;5.144;2022-10-22T11:00:21;4.80;;;1.30;;
66402;SDS011;53212;52.112;5.144;2022-10-22T11:03:21;8.00;;;1.80;;
66402;SDS011;53212;52.112;5.144;2022-10-22T11:06:09;7.30;;;1.80;;
66402;SDS011;53212;52.112;5.144;2022-10-22T11:08:41;5.00;;;1.60;;
66402;SDS011;53212;52.112;5.144;2022-10-22T11:11:25;8.00;;;2.00;;
66402;SDS011;53212;52.112;5.144;2022-10-22T11:14:53;7.00;;;1.60;;
66402;SDS011;53212;52.112;5.144;2022-10-22T11:17:41;6.10;;;1.50;;
66402;SDS011;53212;52.112;5.144;2022-10-22T11:20:52;9.20;;;1.60;;
66402;SDS011;53212;52.112;5.144;2022-10-22T11:23:43;6.40;;;1.70;;
66402;SDS011;53212;52.112;5.144;2022-10-22T11:26:49;12.50;;;2.40;;
66402;SDS011;53212;52.112;5.144;2022-10-22T11:29:40;6.90;;;1.60;;
66402;SDS011;53212;52.112;5.144;2022-10-22T11:32:17;8.70;;;1.80;;
66402;SDS011;53212;52.112;5.144;2022-10-22T11:34:50;6.90;;;1.80;;
66402;SDS011;53212;52.112;5.144;2022-10-22T11:37:19;10.30;;;2.10;;
66402;SDS011;53212;52.112;5.144;2022-10-22T11:42:40;8.70;;;1.60;;
66402;SDS011;53212;52.112;5.144;2022-10-22T11:55:50;9.50;;;2.20;;
66402;SDS011;53212;52.112;5.144;2022-10-22T12:00:54;9.30;;;1.90;;
66402;SDS011;53212;52.112;5.144;2022-10-22T12:17:15;9.20;;;1.80;;
66402;SDS011;53212;52.112;5.144;2022-10-22T12:19:45;9.60;;;2.20;;
66402;SDS011;53212;52.112;5.144;2022-10-22T12:22:22;15.70;;;2.30;;
66402;SDS011;53212;52.112;5.144;2022-10-22T12:24:52;5.20;;;1.70;;
66402;SDS011;53212;52.112;5.144;2022-10-22T12:27:34;6.70;;;1.50;;
66402;SDS011;53212;52.112;5.144;2022-10-22T12:30:25;11.00;;;1.70;;
66402;SDS011;53212;52.112;5.144;2022-10-22T12:32:55;7.60;;;2.00;;
66402;SDS011;53212;52.112;5.144;2022-10-22T12:35:24;7.90;;;1.70;;
66402;SDS011;53212;52.112;5.144;2022-10-22T12:37:58;8.70;;;1.70;;
66402;SDS011;53212;52.112;5.144;2022-10-22T12:40:28;11.20;;;2.80;;
66402;SDS011;53212;52.112;5.144;2022-10-22T12:43:23;8.50;;;2.10;;
66402;SDS011;53212;52.112;5.144;2022-10-22T12:45:49;10.50;;;2.40;;
66402;SDS011;53212;52.112;5.144;2022-10-22T12:48:24;12.00;;;2.50;;
66402;SDS011;53212;52.112;5.144;2022-10-22T12:50:57;8.40;;;1.90;;
66402;SDS011;53212;52.112;5.144;2022-10-22T12:53:52;10.80;;;2.10;;
66402;SDS011;53212;52.112;5.144;2022-10-22T12:56:24;9.00;;;2.10;;
66402;SDS011;53212;52.112;5.144;2022-10-22T12:59:01;7.70;;;2.20;;
66402;SDS011;53212;52.112;5.144;2022-10-22T13:01:35;10.90;;;2.20;;
66402;SDS011;53212;52.112;5.144;2022-10-22T13:07:02;6.60;;;2.20;;
66402;SDS011;53212;52.112;5.144;2022-10-22T13:10:00;12.20;;;3.00;;
66402;SDS011;53212;52.112;5.144;2022-10-22T13:12:49;9.20;;;2.10;;
66402;SDS011;53212;52.112;5.144;2022-10-22T13:18:21;12.90;;;2.70;;
66402;SDS011;53212;52.112;5.144;2022-10-22T13:21:00;10.30;;;2.50;;
66402;SDS011;53212;52.112;5.144;2022-10-22T13:23:32;9.40;;;1.90;;
66402;SDS011;53212;52.112;5.144;2022-10-22T13:28:28;13.90;;;2.90;;
66402;SDS011;53212;52.112;5.144;2022-10-22T13:30:58;15.40;;;2.60;;
66402;SDS011;53212;52.112;5.144;2022-10-22T13:33:35;9.80;;;2.20;;
66402;SDS011;53212;52.112;5.144;2022-10-22T13:36:04;7.00;;;2.00;;
66402;SDS011;53212;52.112;5.144;2022-10-22T13:38:30;10.30;;;2.50;;
66402;SDS011;53212;52.112;5.144;2022-10-22T13:40:56;9.20;;;2.10;;
66402;SDS011;53212;52.112;5.144;2022-10-22T13:43:24;8.40;;;2.30;;
66402;SDS011;53212;52.112;5.144;2022-10-22T13:45:54;14.30;;;2.60;;
66402;SDS011;53212;52.112;5.144;2022-10-22T13:48:23;7.60;;;2.30;;
66402;SDS011;53212;52.112;5.144;2022-10-22T13:50:50;17.00;;;2.80;;
66402;SDS011;53212;52.112;5.144;2022-10-22T13:53:19;14.30;;;2.20;;
66402;SDS011;53212;52.112;5.144;2022-10-22T13:55:48;12.90;;;2.90;;
66402;SDS011;53212;52.112;5.144;2022-10-22T13:58:23;12.20;;;2.70;;
66402;SDS011;53212;52.112;5.144;2022-10-22T14:00:59;16.30;;;2.30;;
66402;SDS011;53212;52.112;5.144;2022-10-22T14:03:31;10.30;;;2.70;;
66402;SDS011;53212;52.112;5.144;2022-10-22T14:05:58;12.30;;;2.30;;
66402;SDS011;53212;52.112;5.144;2022-10-22T14:08:25;10.70;;;2.00;;
66402;SDS011;53212;52.112;5.144;2022-10-22T14:10:55;12.00;;;2.90;;
66402;SDS011;53212;52.112;5.144;2022-10-22T14:13:20;10.70;;;2.10;;
66402;SDS011;53212;52.112;5.144;2022-10-22T14:15:47;8.10;;;2.00;;
66402;SDS011;53212;52.112;5.144;2022-10-22T14:18:20;9.30;;;2.20;;
66402;SDS011;53212;52.112;5.144;2022-10-22T14:20:58;7.10;;;1.70;;
66402;SDS011;53212;52.112;5.144;2022-10-22T14:23:29;5.80;;;1.50;;
66402;SDS011;53212;52.112;5.144;2022-10-22T14:25:58;7.00;;;1.70;;
66402;SDS011;53212;52.112;5.144;2022-10-22T14:28:25;12.60;;;2.40;;
66402;SDS011;53212;52.112;5.144;2022-10-22T14:30:53;10.90;;;2.50;;
66402;SDS011;53212;52.112;5.144;2022-10-22T14:33:32;6.30;;;1.80;;
66402;SDS011;53212;52.112;5.144;2022-10-22T14:36:00;7.60;;;1.80;;
66402;SDS011;53212;52.112;5.144;2022-10-22T14:38:27;8.40;;;2.10;;
66402;SDS011;53212;52.112;5.144;2022-10-22T14:40:53;9.30;;;2.20;;
66402;SDS011;53212;52.112;5.144;2022-10-22T14:43:24;13.70;;;2.60;;
66402;SDS011;53212;52.112;5.144;2022-10-22T14:45:51;8.70;;;2.40;;
66402;SDS011;53212;52.112;5.144;2022-10-22T14:48:17;12.00;;;2.60;;
66402;SDS011;53212;52.112;5.144;2022-10-22T14:50:44;9.20;;;2.10;;
66402;SDS011;53212;52.112;5.144;2022-10-22T14:53:11;8.60;;;2.30;;
66402;SDS011;53212;52.112;5.144;2022-10-22T14:55:38;7.50;;;1.70;;
66402;SDS011;53212;52.112;5.144;2022-10-22T14:58:05;7.90;;;2.40;;
66402;SDS011;53212;52.112;5.144;2022-10-22T15:00:30;9.30;;;2.30;;
66402;SDS011;53212;52.112;5.144;2022-10-22T15:03:01;9.90;;;2.30;;
66402;SDS011;53212;52.112;5.144;2022-10-22T15:05:30;7.60;;;2.20;;
66402;SDS011;53212;52.112;5.144;2022-10-22T15:07:56;9.90;;;2.10;;
66402;SDS011;53212;52.112;5.144;2022-10-22T15:10:23;12.20;;;2.70;;
66402;SDS011;53212;52.112;5.144;2022-10-22T15:12:51;10.80;;;2.30;;
66402;SDS011;53212;52.112;5.144;2022-10-22T15:15:16;9.70;;;2.30;;
66402;SDS011;53212;52.112;5.144;2022-10-22T15:17:42;7.40;;;1.80;;
66402;SDS011;53212;52.112;5.144;2022-10-22T15:20:08;4.90;;;1.70;;
66402;SDS011;53212;52.112;5.144;2022-10-22T15:22:34;11.70;;;2.50;;
66402;SDS011;53212;52.112;5.144;2022-10-22T15:25:06;10.20;;;2.10;;
66402;SDS011;53212;52.112;5.144;2022-10-22T15:27:32;10.90;;;2.50;;
66402;SDS011;53212;52.112;5.144;2022-10-22T15:29:58;9.10;;;1.80;;
66402;SDS011;53212;52.112;5.144;2022-10-22T15:32:25;9.10;;;2.30;;
66402;SDS011;53212;52.112;5.144;2022-10-22T15:34:55;6.50;;;1.70;;
66402;SDS011;53212;52.112;5.144;2022-10-22T15:37:21;8.80;;;2.00;;
66402;SDS011;53212;52.112;5.144;2022-10-22T15:39:48;11.70;;;2.20;;
66402;SDS011;53212;52.112;5.144;2022-10-22T15:42:13;13.30;;;2.40;;
66402;SDS011;53212;52.112;5.144;2022-10-22T15:44:39;9.90;;;1.80;;
66402;SDS011;53212;52.112;5.144;2022-10-22T15:47:08;10.70;;;2.90;;
66402;SDS011;53212;52.112;5.144;2022-10-22T15:49:36;8.60;;;2.20;;
66402;SDS011;53212;52.112;5.144;2022-10-22T15:52:06;10.70;;;2.20;;
66402;SDS011;53212;52.112;5.144;2022-10-22T15:54:33;9.90;;;1.90;;
66402;SDS011;53212;52.112;5.144;2022-10-22T15:56:59;10.00;;;1.90;;
66402;SDS011;53212;52.112;5.144;2022-10-22T15:59:32;11.90;;;3.10;;
66402;SDS011;53212;52.112;5.144;2022-10-22T16:02:01;9.90;;;2.10;;
66402;SDS011;53212;52.112;5.144;2022-10-22T16:04:27;11.20;;;2.30;;
66402;SDS011;53212;52.112;5.144;2022-10-22T16:06:53;12.40;;;2.30;;
66402;SDS011;53212;52.112;5.144;2022-10-22T16:09:24;12.00;;;2.40;;
66402;SDS011;53212;52.112;5.144;2022-10-22T16:11:52;11.70;;;3.30;;
66402;SDS011;53212;52.112;5.144;2022-10-22T16:14:20;11.30;;;2.40;;
66402;SDS011;53212;52.112;5.144;2022-10-22T16:16:50;8.90;;;2.30;;
66402;SDS011;53212;52.112;5.144;2022-10-22T16:19:19;11.70;;;2.30;;
66402;SDS011;53212;52.112;5.144;2022-10-22T16:21:48;7.70;;;2.50;;
66402;SDS011;53212;52.112;5.144;2022-10-22T16:24:15;10.90;;;2.50;;
66402;SDS011;53212;52.112;5.144;2022-10-22T16:26:41;8.00;;;2.00;;
66402;SDS011;53212;52.112;5.144;2022-10-22T16:29:07;9.50;;;2.90;;
66402;SDS011;53212;52.112;5.144;2022-10-22T16:31:34;17.40;;;6.10;;
66402;SDS011;53212;52.112;5.144;2022-10-22T16:34:00;12.50;;;5.00;;
66402;SDS011;53212;52.112;5.144;2022-10-22T16:36:29;13.60;;;3.40;;
66402;SDS011;53212;52.112;5.144;2022-10-22T16:38:56;18.20;;;11.00;;
66402;SDS011;53212;52.112;5.144;2022-10-22T16:41:23;30.20;;;10.50;;
66402;SDS011;53212;52.112;5.144;2022-10-22T16:43:53;15.10;;;6.30;;
66402;SDS011;53212;52.112;5.144;2022-10-22T16:46:20;13.50;;;3.20;;
66402;SDS011;53212;52.112;5.144;2022-10-22T16:48:48;14.50;;;2.90;;
66402;SDS011;53212;52.112;5.144;2022-10-22T16:51:16;10.40;;;2.50;;
66402;SDS011;53212;52.112;5.144;2022-10-22T16:53:47;11.40;;;2.80;;
66402;SDS011;53212;52.112;5.144;2022-10-22T16:56:29;13.70;;;5.40;;
66402;SDS011;53212;52.112;5.144;2022-10-22T16:59:07;13.40;;;5.50;;
66402;SDS011;53212;52.112;5.144;2022-10-22T17:01:32;14.10;;;6.60;;